createdAt,value
2019-04-29T00:00:01.218Z,68.10
2019-04-29T00:02:35.905Z,68.60
2019-04-29T00:05:06.212Z,69.00
2019-04-29T00:07:36.100Z,68.80
2019-04-29T00:10:08.440Z,68.60
2019-04-29T00:12:38.147Z,68.80
2019-04-29T00:15:30.367Z,69.10
2019-04-29T00:18:04.820Z,69.10
2019-04-29T00:20:41.981Z,69.90
2019-04-29T00:23:11.689Z,70.00
2019-04-29T00:25:41.546Z,69.60
2019-04-29T00:28:11.727Z,69.30
2019-04-29T00:30:41.664Z,70.10
2019-04-29T00:33:11.495Z,70.40
2019-04-29T00:35:41.220Z,71.00
2019-04-29T00:38:42.117Z,71.70
2019-04-29T00:41:29.446Z,72.30
2019-04-29T00:44:04.364Z,72.70
2019-04-29T00:46:34.032Z,72.70
2019-04-29T00:49:03.793Z,72.60
2019-04-29T00:51:33.528Z,72.50
2019-04-29T00:54:12.144Z,72.10
2019-04-29T00:56:40.310Z,71.80
2019-04-29T00:59:10.011Z,71.80
2019-04-29T01:01:40.052Z,71.70
2019-04-29T01:04:09.776Z,71.30
2019-04-29T01:06:39.532Z,71.30
2019-04-29T01:09:14.149Z,71.30
2019-04-29T01:11:44.079Z,71.00
2019-04-29T01:14:13.803Z,71.70
2019-04-29T01:16:43.557Z,71.70
2019-04-29T01:19:13.264Z,71.80
2019-04-29T01:21:43.088Z,71.70
2019-04-29T01:24:12.808Z,71.90
2019-04-29T01:27:06.123Z,71.60
2019-04-29T01:29:36.370Z,71.80
2019-04-29T01:32:07.568Z,72.00
2019-04-29T01:34:51.557Z,71.80
2019-04-29T01:37:22.855Z,72.00
2019-04-29T01:40:11.453Z,71.20
2019-04-29T01:42:42.124Z,71.90
2019-04-29T01:45:11.875Z,72.10
2019-04-29T01:47:41.597Z,72.50
2019-04-29T01:50:11.341Z,72.30
2019-04-29T01:52:41.049Z,72.30
2019-04-29T01:55:10.898Z,72.30
2019-04-29T01:57:40.609Z,72.30
2019-04-29T02:00:12.349Z,72.60
2019-04-29T02:02:42.386Z,72.60
2019-04-29T02:05:12.141Z,72.30
2019-04-29T02:07:41.869Z,72.30
2019-04-29T02:10:29.811Z,72.10
2019-04-29T02:12:59.485Z,72.00
2019-04-29T02:15:29.235Z,72.00
2019-04-29T02:17:58.935Z,72.10
2019-04-29T02:20:28.627Z,72.30
2019-04-29T02:23:15.919Z,72.20
2019-04-29T02:25:46.281Z,71.90
2019-04-29T02:28:15.901Z,72.50
2019-04-29T02:30:47.990Z,72.50
2019-04-29T02:33:17.777Z,72.40
2019-04-29T02:35:47.780Z,72.50
2019-04-29T02:38:42.548Z,72.70
2019-04-29T02:41:22.052Z,72.60
2019-04-29T02:43:53.200Z,72.30
2019-04-29T02:46:22.869Z,72.50
2019-04-29T02:48:52.583Z,72.50
2019-04-29T02:51:40.138Z,72.30
2019-04-29T02:54:09.869Z,72.60
2019-04-29T02:56:40.887Z,72.60
2019-04-29T02:59:11.163Z,72.40
2019-04-29T03:02:15.870Z,72.40
2019-04-29T03:05:03.331Z,73.10
2019-04-29T03:07:33.246Z,73.00
2019-04-29T03:10:03.017Z,73.60
2019-04-29T03:12:33.121Z,73.50
2019-04-29T03:15:02.906Z,73.50
2019-04-29T03:17:32.630Z,73.60
2019-04-29T03:20:36.711Z,73.60
2019-04-29T03:23:14.390Z,73.50
2019-04-29T03:25:43.016Z,74.10
2019-04-29T03:28:12.717Z,74.10
2019-04-29T03:30:42.491Z,73.80
2019-04-29T03:33:12.223Z,74.10
2019-04-29T03:35:41.913Z,74.00
2019-04-29T03:38:11.642Z,74.60
2019-04-29T03:40:41.332Z,74.40
2019-04-29T03:43:11.069Z,74.20
2019-04-29T03:45:40.993Z,74.20
2019-04-29T03:48:10.757Z,74.20
2019-04-29T03:50:40.484Z,73.90
2019-04-29T03:53:10.231Z,73.50
2019-04-29T03:55:40.785Z,73.60
2019-04-29T03:58:10.737Z,73.50
2019-04-29T04:00:43.998Z,73.60
2019-04-29T04:03:27.591Z,74.10
2019-04-29T04:06:08.807Z,74.40
2019-04-29T04:09:04.279Z,74.30
2019-04-29T04:11:18.799Z,73.90
2019-04-29T04:13:48.554Z,73.80
2019-04-29T04:16:46.415Z,73.60
2019-04-29T04:19:16.431Z,73.90
2019-04-29T04:21:46.132Z,74.70
2019-04-29T04:24:15.831Z,75.20
2019-04-29T04:26:45.566Z,75.00
2019-04-29T04:29:15.278Z,74.60
2019-04-29T04:31:44.958Z,74.50
2019-04-29T04:34:14.844Z,74.40
2019-04-29T04:36:44.582Z,75.10
2019-04-29T04:39:17.385Z,74.70
2019-04-29T04:41:47.389Z,73.70
2019-04-29T04:44:18.269Z,75.40
2019-04-29T04:46:48.048Z,74.80
2019-04-29T04:49:17.868Z,76.10
2019-04-29T04:51:47.686Z,75.40
2019-04-29T04:54:17.496Z,76.90
2019-04-29T04:56:47.270Z,77.40
2019-04-29T04:59:16.995Z,77.90
2019-04-29T05:01:46.794Z,76.40
2019-04-29T05:04:16.535Z,76.10
2019-04-29T05:06:46.346Z,75.70
2019-04-29T05:09:17.241Z,75.70
2019-04-29T05:11:47.023Z,74.80
2019-04-29T05:14:16.754Z,74.90
2019-04-29T05:16:46.546Z,75.20
2019-04-29T05:19:16.426Z,74.60
2019-04-29T05:21:46.097Z,76.00
2019-04-29T05:24:15.941Z,75.30
2019-04-29T05:26:45.666Z,75.20
2019-04-29T05:29:15.392Z,74.80
2019-04-29T05:31:45.065Z,76.20
2019-04-29T05:34:15.523Z,74.60
2019-04-29T05:37:03.088Z,75.60
2019-04-29T05:39:35.775Z,75.00
2019-04-29T05:42:07.766Z,75.30
2019-04-29T05:44:52.041Z,75.30
2019-04-29T05:47:40.733Z,75.60
2019-04-29T05:50:28.326Z,75.70
2019-04-29T05:53:11.542Z,74.90
2019-04-29T05:55:39.568Z,75.90
2019-04-29T05:58:12.078Z,75.60
2019-04-29T06:00:50.607Z,77.20
2019-04-29T06:03:20.417Z,75.90
2019-04-29T06:05:50.513Z,75.90
2019-04-29T06:08:20.319Z,77.20
2019-04-29T06:10:50.028Z,76.00
2019-04-29T06:13:19.842Z,76.50
2019-04-29T06:15:49.521Z,77.30
2019-04-29T06:18:22.138Z,78.50
2019-04-29T06:20:50.712Z,78.50
2019-04-29T06:23:23.201Z,78.70
2019-04-29T06:25:51.959Z,78.40
2019-04-29T06:28:26.359Z,78.20
2019-04-29T06:30:53.053Z,78.00
2019-04-29T06:33:24.333Z,77.80
2019-04-29T06:35:56.926Z,79.20
2019-04-29T06:38:25.674Z,79.80
2019-04-29T06:40:55.411Z,79.70
2019-04-29T06:43:28.939Z,78.10
2019-04-29T06:45:56.535Z,79.20
2019-04-29T06:48:26.240Z,79.20
2019-04-29T06:50:55.968Z,80.40
2019-04-29T06:53:25.828Z,79.90
2019-04-29T06:55:55.595Z,80.80
2019-04-29T06:58:25.332Z,79.20
2019-04-29T07:00:55.923Z,80.00
2019-04-29T07:03:26.752Z,80.00
2019-04-29T07:05:56.575Z,82.20
2019-04-29T07:08:26.703Z,81.00
2019-04-29T07:11:01.080Z,80.60
2019-04-29T07:13:27.680Z,80.90
2019-04-29T07:16:06.723Z,82.10
2019-04-29T07:18:40.340Z,80.80
2019-04-29T07:21:11.861Z,80.70
2019-04-29T07:23:39.385Z,81.10
2019-04-29T07:26:09.278Z,80.40
2019-04-29T07:28:39.110Z,81.00
2019-04-29T07:31:10.270Z,81.50
2019-04-29T07:33:40.181Z,81.70
2019-04-29T07:36:11.138Z,80.40
2019-04-29T07:38:46.441Z,81.10
2019-04-29T07:41:19.036Z,82.50
2019-04-29T07:43:46.774Z,83.40
2019-04-29T07:46:23.199Z,82.80
2019-04-29T07:49:01.242Z,80.70
2019-04-29T07:51:24.494Z,81.10
2019-04-29T07:53:54.209Z,80.10
2019-04-29T07:56:23.932Z,79.60
2019-04-29T07:58:53.745Z,79.70
2019-04-29T08:01:24.469Z,79.50
2019-04-29T08:03:54.754Z,81.10
2019-04-29T08:06:24.620Z,80.70
2019-04-29T08:09:02.915Z,81.40
2019-04-29T08:11:28.133Z,80.30
2019-04-29T08:14:01.257Z,80.50
2019-04-29T08:16:30.981Z,79.50
2019-04-29T08:19:00.815Z,81.30
2019-04-29T08:21:30.652Z,81.20
2019-04-29T08:24:00.471Z,81.80
2019-04-29T08:26:33.739Z,81.20
2019-04-29T08:29:01.707Z,80.40
2019-04-29T08:31:31.363Z,80.10
2019-04-29T08:34:01.562Z,81.40
2019-04-29T08:36:31.329Z,81.40
2019-04-29T08:39:08.227Z,81.70
2019-04-29T08:41:35.588Z,82.30
2019-04-29T08:44:25.988Z,81.10
2019-04-29T08:46:59.483Z,82.30
2019-04-29T08:49:29.247Z,83.10
2019-04-29T08:51:58.969Z,84.50
2019-04-29T08:54:28.717Z,83.90
2019-04-29T08:57:02.906Z,82.80
2019-04-29T08:59:29.762Z,83.40
2019-04-29T09:01:59.586Z,83.60
2019-04-29T09:04:33.336Z,83.40
2019-04-29T09:07:12.004Z,82.50
2019-04-29T09:09:32.174Z,82.80
2019-04-29T09:12:01.957Z,83.80
2019-04-29T09:14:31.666Z,83.10
2019-04-29T09:17:04.646Z,84.40
2019-04-29T09:19:32.786Z,81.70
2019-04-29T09:22:04.564Z,81.40
2019-04-29T09:24:34.685Z,80.30
2019-04-29T09:27:11.299Z,79.70
2019-04-29T09:29:41.119Z,80.00
2019-04-29T09:32:11.115Z,80.90
2019-04-29T09:34:40.816Z,80.40
2019-04-29T09:37:10.758Z,79.10
2019-04-29T09:39:43.818Z,80.70
2019-04-29T09:42:31.338Z,79.50
2019-04-29T09:45:22.085Z,79.00
2019-04-29T09:47:50.129Z,78.80
2019-04-29T09:50:19.859Z,78.10
2019-04-29T09:52:49.580Z,78.90
2019-04-29T09:55:20.811Z,78.40
2019-04-29T09:57:50.499Z,77.80
2019-04-29T10:00:40.804Z,77.80
2019-04-29T10:03:18.355Z,77.90
2019-04-29T10:05:57.375Z,78.20
2019-04-29T10:08:30.116Z,78.70
2019-04-29T10:10:59.898Z,78.80
2019-04-29T10:13:32.585Z,78.60
2019-04-29T10:16:23.789Z,77.80
2019-04-29T10:19:00.754Z,77.60
2019-04-29T10:21:29.531Z,78.00
2019-04-29T10:23:59.641Z,77.80
2019-04-29T10:26:29.365Z,78.50
2019-04-29T10:29:03.268Z,78.20
2019-04-29T10:31:33.204Z,78.40
2019-04-29T10:34:03.046Z,79.00
2019-04-29T10:36:32.832Z,79.40
2019-04-29T10:39:18.619Z,79.80
2019-04-29T10:41:49.266Z,79.50
2019-04-29T10:44:30.917Z,80.20
2019-04-29T10:47:23.645Z,79.40
2019-04-29T10:49:57.037Z,79.30
2019-04-29T10:52:26.991Z,80.00
2019-04-29T10:54:56.828Z,79.50
2019-04-29T10:57:29.307Z,80.70
2019-04-29T11:00:04.350Z,79.50
2019-04-29T11:02:37.058Z,78.90
2019-04-29T11:05:21.306Z,79.40
2019-04-29T11:07:53.662Z,79.30
2019-04-29T11:10:29.035Z,79.90
2019-04-29T11:12:59.060Z,79.30
2019-04-29T11:15:33.337Z,81.60
2019-04-29T11:18:04.372Z,81.60
2019-04-29T11:20:35.627Z,81.10
2019-04-29T11:23:25.069Z,81.00
2019-04-29T11:26:13.683Z,79.60
2019-04-29T11:28:46.879Z,79.40
2019-04-29T11:31:19.122Z,80.70
2019-04-29T11:33:54.745Z,80.30
2019-04-29T11:36:25.483Z,82.70
2019-04-29T11:38:55.311Z,81.60
2019-04-29T11:41:27.498Z,81.10
2019-04-29T11:43:57.250Z,82.80
2019-04-29T11:46:26.980Z,83.40
2019-04-29T11:48:58.290Z,84.00
2019-04-29T11:51:39.847Z,84.00
2019-04-29T11:54:08.295Z,84.40
2019-04-29T11:56:39.438Z,83.20
2019-04-29T11:59:18.754Z,85.20
2019-04-29T12:01:55.742Z,84.20
2019-04-29T12:04:37.484Z,84.20
2019-04-29T12:07:07.256Z,84.50
2019-04-29T12:09:36.960Z,85.30
2019-04-29T12:12:07.953Z,85.40
2019-04-29T12:14:50.555Z,83.90
2019-04-29T12:17:42.202Z,77.90
2019-04-29T12:20:24.313Z,79.80
2019-04-29T12:22:54.055Z,79.50
2019-04-29T12:25:27.578Z,78.40
2019-04-29T12:28:01.632Z,79.30
2019-04-29T12:30:41.515Z,81.20
2019-04-29T12:33:23.191Z,81.70
2019-04-29T12:36:06.051Z,81.20
2019-04-29T12:38:54.656Z,79.80
2019-04-29T12:41:49.614Z,83.00
2019-04-29T12:44:34.688Z,84.50
2019-04-29T12:47:09.432Z,83.20
2019-04-29T12:49:42.361Z,83.70
2019-04-29T12:52:10.599Z,83.10
2019-04-29T12:54:42.118Z,82.10
2019-04-29T12:57:11.711Z,83.30
2019-04-29T12:59:41.572Z,84.20
2019-04-29T13:02:33.195Z,84.20
2019-04-29T13:05:14.522Z,84.90
2019-04-29T13:07:52.331Z,84.40
2019-04-29T13:10:53.148Z,84.40
2019-04-29T13:13:23.004Z,84.00
2019-04-29T13:16:20.310Z,84.70
2019-04-29T13:19:20.925Z,84.40
2019-04-29T13:21:50.890Z,83.70
2019-04-29T13:24:25.068Z,84.50
2019-04-29T13:26:52.172Z,86.00
2019-04-29T13:29:27.447Z,85.10
2019-04-29T13:31:53.415Z,86.20
2019-04-29T13:34:33.330Z,85.30
2019-04-29T13:37:07.310Z,84.90
2019-04-29T13:39:39.670Z,84.70
2019-04-29T13:42:09.050Z,84.20
2019-04-29T13:44:46.062Z,86.60
2019-04-29T13:47:36.747Z,85.80
2019-04-29T13:50:19.061Z,86.20
2019-04-29T13:52:42.987Z,87.80
2019-04-29T13:55:17.998Z,87.10
2019-04-29T13:57:45.125Z,87.70
2019-04-29T14:00:36.564Z,86.10
2019-04-29T14:03:20.770Z,87.30
2019-04-29T14:06:03.621Z,85.90
2019-04-29T14:08:24.123Z,89.20
2019-04-29T14:10:53.454Z,86.90
2019-04-29T14:13:23.238Z,86.80
2019-04-29T14:15:53.026Z,87.90
2019-04-29T14:18:22.848Z,88.20
2019-04-29T14:20:53.133Z,88.10
2019-04-29T14:23:23.398Z,89.10
2019-04-29T14:25:53.119Z,86.70
2019-04-29T14:28:22.897Z,87.70
2019-04-29T14:30:55.630Z,89.00
2019-04-29T14:33:28.133Z,88.40
2019-04-29T14:36:03.451Z,89.10
2019-04-29T14:38:36.108Z,88.90
2019-04-29T14:41:05.614Z,89.10
2019-04-29T14:43:50.541Z,88.10
2019-04-29T14:46:48.544Z,87.90
2019-04-29T14:49:21.711Z,87.40
2019-04-29T14:51:51.469Z,86.00
2019-04-29T14:54:21.384Z,86.80
2019-04-29T14:56:51.120Z,87.70
2019-04-29T14:59:21.211Z,89.10
2019-04-29T15:01:59.374Z,90.10
2019-04-29T15:04:33.218Z,90.00
2019-04-29T15:07:03.161Z,87.60
2019-04-29T15:09:45.968Z,87.80
2019-04-29T15:12:26.938Z,88.40
2019-04-29T15:15:29.876Z,89.10
2019-04-29T15:18:15.883Z,90.00
2019-04-29T15:21:01.881Z,90.30
2019-04-29T15:23:32.663Z,90.10
2019-04-29T15:26:03.235Z,90.50
2019-04-29T15:28:35.922Z,90.70
2019-04-29T15:31:08.000Z,90.50
2019-04-29T15:33:37.392Z,91.70
2019-04-29T15:36:07.184Z,90.60
2019-04-29T15:38:37.015Z,90.40
2019-04-29T15:41:06.851Z,90.30
2019-04-29T15:43:47.507Z,88.70
2019-04-29T15:46:11.366Z,90.50
2019-04-29T15:48:40.583Z,90.40
2019-04-29T15:51:13.983Z,90.00
2019-04-29T15:53:41.995Z,89.30
2019-04-29T15:56:27.815Z,88.80
2019-04-29T15:58:43.342Z,90.20
2019-04-29T16:01:17.633Z,90.00
2019-04-29T16:03:45.098Z,90.60
2019-04-29T16:06:39.908Z,90.00
2019-04-29T16:09:50.618Z,90.50
2019-04-29T16:12:19.638Z,90.00
2019-04-29T16:14:49.431Z,90.60
2019-04-29T16:17:20.684Z,90.40
2019-04-29T16:19:53.195Z,90.50
2019-04-29T16:22:23.163Z,90.10
2019-04-29T16:24:58.948Z,90.00
2019-04-29T16:27:24.452Z,88.60
2019-04-29T16:29:56.040Z,88.70
2019-04-29T16:32:31.669Z,90.10
2019-04-29T16:35:01.409Z,89.30
2019-04-29T16:37:31.996Z,88.60
2019-04-29T16:40:02.121Z,90.10
2019-04-29T16:42:54.930Z,90.50
2019-04-29T16:45:31.528Z,89.20
2019-04-29T16:48:03.027Z,89.50
2019-04-29T16:50:33.145Z,90.30
2019-04-29T16:53:02.955Z,90.20
2019-04-29T16:55:35.847Z,90.30
2019-04-29T16:58:07.687Z,89.70
2019-04-29T17:00:37.796Z,89.20
2019-04-29T17:03:07.641Z,90.00
2019-04-29T17:05:37.446Z,90.30
2019-04-29T17:08:09.244Z,90.10
2019-04-29T17:11:17.585Z,90.40
2019-04-29T17:13:47.450Z,90.00
2019-04-29T17:16:18.741Z,90.30
2019-04-29T17:18:51.264Z,90.30
2019-04-29T17:21:20.945Z,90.20
2019-04-29T17:23:50.742Z,90.20
2019-04-29T17:26:22.037Z,90.30
2019-04-29T17:29:38.671Z,90.70
2019-04-29T17:32:11.319Z,90.70
2019-04-29T17:34:58.228Z,90.50
2019-04-29T17:37:13.395Z,90.70
2019-04-29T17:39:43.244Z,90.80
2019-04-29T17:42:13.063Z,91.00
2019-04-29T17:44:46.610Z,90.80
2019-04-29T17:47:37.563Z,91.20
2019-04-29T17:50:31.340Z,90.50
2019-04-29T17:52:58.079Z,90.60
2019-04-29T17:55:40.252Z,90.50
2019-04-29T17:58:33.531Z,90.40
2019-04-29T18:01:24.313Z,90.40
2019-04-29T18:04:15.508Z,90.60
2019-04-29T18:06:50.176Z,90.90
2019-04-29T18:09:38.212Z,90.70
2019-04-29T18:12:15.462Z,91.10
2019-04-29T18:14:45.192Z,90.60
2019-04-29T18:17:24.124Z,90.60
2019-04-29T18:20:02.045Z,90.90
2019-04-29T18:22:42.509Z,91.00
2019-04-29T18:25:16.724Z,90.70
2019-04-29T18:27:49.059Z,90.90
2019-04-29T18:30:27.369Z,91.10
2019-04-29T18:32:50.524Z,91.10
2019-04-29T18:35:20.224Z,90.40
2019-04-29T18:37:49.974Z,90.70
2019-04-29T18:40:19.893Z,90.80
2019-04-29T18:42:50.333Z,90.90
2019-04-29T18:45:20.050Z,91.20
2019-04-29T18:47:49.945Z,91.30
2019-04-29T18:50:19.662Z,91.10
2019-04-29T18:52:49.484Z,91.10
2019-04-29T18:55:19.235Z,91.10
2019-04-29T18:57:48.979Z,91.10
2019-04-29T19:00:21.908Z,91.10
2019-04-29T19:03:47.539Z,91.30
2019-04-29T19:06:18.415Z,91.10
2019-04-29T19:08:48.218Z,91.10
2019-04-29T19:11:30.621Z,91.10
2019-04-29T19:13:55.045Z,91.30
2019-04-29T19:16:27.593Z,91.30
2019-04-29T19:19:01.743Z,91.10
2019-04-29T19:21:31.438Z,91.30
2019-04-29T19:24:01.047Z,90.80
2019-04-29T19:26:30.827Z,90.90
2019-04-29T19:29:01.189Z,92.00
2019-04-29T19:31:36.310Z,91.70
2019-04-29T19:34:05.355Z,91.60
2019-04-29T19:36:34.978Z,91.90
2019-04-29T19:39:06.920Z,91.50
2019-04-29T19:41:36.703Z,91.40
2019-04-29T19:44:07.945Z,91.40
2019-04-29T19:46:41.267Z,91.10
2019-04-29T19:49:10.282Z,90.90
2019-04-29T19:51:43.571Z,91.30
2019-04-29T19:54:11.715Z,91.30
2019-04-29T19:56:41.570Z,91.40
2019-04-29T19:59:13.720Z,91.30
2019-04-29T20:01:46.469Z,91.10
2019-04-29T20:04:36.464Z,91.00
2019-04-29T20:07:10.072Z,91.40
2019-04-29T20:09:39.097Z,91.30
2019-04-29T20:12:13.094Z,91.40
2019-04-29T20:14:41.379Z,91.20
2019-04-29T20:17:39.347Z,91.00
2019-04-29T20:20:15.351Z,91.60
2019-04-29T20:22:50.908Z,91.40
2019-04-29T20:25:29.330Z,91.10
2019-04-29T20:28:04.794Z,91.00
2019-04-29T20:30:23.131Z,91.40
2019-04-29T20:32:53.280Z,91.20
2019-04-29T20:35:23.330Z,91.10
2019-04-29T20:37:56.642Z,90.60
2019-04-29T20:40:26.872Z,91.00
2019-04-29T20:42:55.805Z,90.70
2019-04-29T20:45:28.943Z,91.10
2019-04-29T20:47:57.169Z,90.80
2019-04-29T20:50:26.937Z,90.90
2019-04-29T20:53:35.419Z,91.00
2019-04-29T20:56:10.328Z,90.80
2019-04-29T20:58:35.693Z,90.90
2019-04-29T21:01:10.787Z,90.60
2019-04-29T21:03:40.835Z,90.80
2019-04-29T21:06:09.809Z,91.10
2019-04-29T21:08:39.995Z,90.70
2019-04-29T21:11:20.793Z,91.20
2019-04-29T21:14:08.531Z,91.30
2019-04-29T21:16:41.976Z,91.00
2019-04-29T21:19:11.894Z,90.80
2019-04-29T21:21:43.578Z,91.20
2019-04-29T21:24:17.203Z,91.40
2019-04-29T21:26:45.947Z,91.20
2019-04-29T21:29:19.202Z,91.10
2019-04-29T21:31:50.608Z,91.00
2019-04-29T21:34:19.558Z,91.00
2019-04-29T21:37:15.482Z,90.80
2019-04-29T21:39:50.963Z,90.80
2019-04-29T21:42:35.203Z,90.90
2019-04-29T21:45:03.938Z,90.60
2019-04-29T21:47:41.681Z,90.80
2019-04-29T21:50:02.803Z,90.90
2019-04-29T21:52:32.549Z,90.90
2019-04-29T21:55:02.241Z,90.80
2019-04-29T21:57:31.975Z,90.90
2019-04-29T22:00:01.730Z,90.90
2019-04-29T22:02:31.424Z,91.20
2019-04-29T22:05:01.094Z,90.90
2019-04-29T22:07:30.824Z,91.30
2019-04-29T22:10:00.602Z,90.60
2019-04-29T22:12:30.304Z,90.60
2019-04-29T22:14:59.997Z,90.70
2019-04-29T22:17:32.840Z,90.50
2019-04-29T22:20:04.217Z,90.70
2019-04-29T22:22:34.976Z,90.60
2019-04-29T22:25:09.641Z,90.70
2019-04-29T22:27:39.358Z,90.80
2019-04-29T22:30:10.355Z,91.00
2019-04-29T22:32:41.094Z,91.10
2019-04-29T22:35:10.857Z,91.10
2019-04-29T22:37:40.615Z,91.00
2019-04-29T22:40:10.474Z,91.30
2019-04-29T22:42:45.982Z,91.20
2019-04-29T22:45:16.806Z,90.90
2019-04-29T22:47:46.510Z,91.20
2019-04-29T22:50:16.261Z,91.30
2019-04-29T22:52:45.953Z,91.40
2019-04-29T22:55:15.827Z,90.70
2019-04-29T22:57:46.911Z,90.40
2019-04-29T23:00:18.501Z,91.00
2019-04-29T23:02:48.158Z,90.90
2019-04-29T23:05:17.943Z,90.30
2019-04-29T23:07:47.685Z,90.60
2019-04-29T23:10:18.093Z,90.70
2019-04-29T23:12:49.212Z,90.10
2019-04-29T23:15:23.577Z,90.80
2019-04-29T23:17:50.874Z,90.60
2019-04-29T23:20:39.709Z,90.70
2019-04-29T23:23:15.632Z,90.70
2019-04-29T23:25:48.838Z,90.60
2019-04-29T23:28:18.491Z,91.00
2019-04-29T23:30:52.210Z,90.80
2019-04-29T23:33:22.963Z,90.70
2019-04-29T23:35:50.981Z,90.50
2019-04-29T23:38:20.768Z,90.80
2019-04-29T23:40:54.485Z,90.60
2019-04-29T23:43:27.098Z,91.00
2019-04-29T23:45:56.966Z,90.40
2019-04-29T23:48:29.060Z,90.10
2019-04-29T23:50:58.204Z,90.40
2019-04-29T23:53:27.255Z,90.90
2019-04-29T23:56:00.185Z,90.50
2019-04-29T23:58:38.717Z,90.40
